sensor_id;sensor_type;location;lat;lon;timestamp;temperature;humidity
15717;DHT22;7960;50.908;4.204;2022-12-07T00:00:20;4.70;99.90
15717;DHT22;7960;50.908;4.204;2022-12-07T00:02:47;4.70;99.90
15717;DHT22;7960;50.908;4.204;2022-12-07T00:05:14;4.80;99.90
15717;DHT22;7960;50.908;4.204;2022-12-07T00:07:41;4.80;99.90
15717;DHT22;7960;50.908;4.204;2022-12-07T00:10:08;4.70;99.90
15717;DHT22;7960;50.908;4.204;2022-12-07T00:12:36;4.80;99.90
15717;DHT22;7960;50.908;4.204;2022-12-07T00:15:03;4.70;99.90
15717;DHT22;7960;50.908;4.204;2022-12-07T00:17:30;4.70;99.90
15717;DHT22;7960;50.908;4.204;2022-12-07T00:19:57;4.70;99.90
15717;DHT22;7960;50.908;4.204;2022-12-07T00:22:23;4.70;99.90
15717;DHT22;7960;50.908;4.204;2022-12-07T00:24:50;4.70;99.90
15717;DHT22;7960;50.908;4.204;2022-12-07T00:27:17;4.60;99.90
15717;DHT22;7960;50.908;4.204;2022-12-07T00:29:45;4.70;99.90
15717;DHT22;7960;50.908;4.204;2022-12-07T00:32:12;4.60;99.90
15717;DHT22;7960;50.908;4.204;2022-12-07T00:34:39;4.60;99.90
15717;DHT22;7960;50.908;4.204;2022-12-07T00:37:06;4.60;99.90
15717;DHT22;7960;50.908;4.204;2022-12-07T00:39:32;4.60;99.90
15717;DHT22;7960;50.908;4.204;2022-12-07T00:42:00;4.50;99.90
15717;DHT22;7960;50.908;4.204;2022-12-07T00:44:26;4.50;99.90
15717;DHT22;7960;50.908;4.204;2022-12-07T00:46:55;4.50;99.90
15717;DHT22;7960;50.908;4.204;2022-12-07T00:49:21;4.50;99.90
15717;DHT22;7960;50.908;4.204;2022-12-07T00:51:49;4.50;99.90
15717;DHT22;7960;50.908;4.204;2022-12-07T00:54:16;4.50;99.90
15717;DHT22;7960;50.908;4.204;2022-12-07T00:56:42;4.50;99.90
15717;DHT22;7960;50.908;4.204;2022-12-07T00:59:12;4.50;99.90
15717;DHT22;7960;50.908;4.204;2022-12-07T01:01:39;4.50;99.90
15717;DHT22;7960;50.908;4.204;2022-12-07T01:04:07;4.50;99.90
15717;DHT22;7960;50.908;4.204;2022-12-07T01:06:34;4.40;99.90
15717;DHT22;7960;50.908;4.204;2022-12-07T01:09:03;4.40;99.90
15717;DHT22;7960;50.908;4.204;2022-12-07T01:11:30;4.40;99.90
15717;DHT22;7960;50.908;4.204;2022-12-07T01:13:59;4.40;99.90
15717;DHT22;7960;50.908;4.204;2022-12-07T01:16:28;4.20;99.90
15717;DHT22;7960;50.908;4.204;2022-12-07T01:18:56;4.30;99.90
15717;DHT22;7960;50.908;4.204;2022-12-07T01:21:27;4.30;99.90
15717;DHT22;7960;50.908;4.204;2022-12-07T01:23:54;4.20;99.90
15717;DHT22;7960;50.908;4.204;2022-12-07T01:26:24;4.20;99.90
15717;DHT22;7960;50.908;4.204;2022-12-07T01:28:51;4.20;99.90
15717;DHT22;7960;50.908;4.204;2022-12-07T01:31:24;4.20;99.90
15717;DHT22;7960;50.908;4.204;2022-12-07T01:33:53;4.20;99.90
15717;DHT22;7960;50.908;4.204;2022-12-07T01:36:21;4.20;99.90
15717;DHT22;7960;50.908;4.204;2022-12-07T01:38:53;4.30;99.90
15717;DHT22;7960;50.908;4.204;2022-12-07T01:41:23;4.50;99.90
15717;DHT22;7960;50.908;4.204;2022-12-07T01:44:15;4.50;99.90
15717;DHT22;7960;50.908;4.204;2022-12-07T01:46:44;4.60;99.90
15717;DHT22;7960;50.908;4.204;2022-12-07T01:49:23;4.60;99.90
15717;DHT22;7960;50.908;4.204;2022-12-07T01:51:54;4.70;99.90
15717;DHT22;7960;50.908;4.204;2022-12-07T01:54:25;4.80;99.90
15717;DHT22;7960;50.908;4.204;2022-12-07T01:56:54;4.90;99.90
15717;DHT22;7960;50.908;4.204;2022-12-07T01:59:24;4.90;99.90
15717;DHT22;7960;50.908;4.204;2022-12-07T02:01:53;4.80;99.90
15717;DHT22;7960;50.908;4.204;2022-12-07T02:04:21;4.90;99.90
15717;DHT22;7960;50.908;4.204;2022-12-07T02:06:48;4.90;99.90
15717;DHT22;7960;50.908;4.204;2022-12-07T02:09:16;4.80;99.90
15717;DHT22;7960;50.908;4.204;2022-12-07T02:11:44;4.80;99.90
15717;DHT22;7960;50.908;4.204;2022-12-07T02:14:11;4.80;99.90
15717;DHT22;7960;50.908;4.204;2022-12-07T02:16:46;4.80;99.90
15717;DHT22;7960;50.908;4.204;2022-12-07T02:19:39;4.90;99.90
15717;DHT22;7960;50.908;4.204;2022-12-07T02:22:25;5.00;99.90
15717;DHT22;7960;50.908;4.204;2022-12-07T02:25:04;5.00;99.90
15717;DHT22;7960;50.908;4.204;2022-12-07T02:27:42;5.10;99.90
15717;DHT22;7960;50.908;4.204;2022-12-07T02:30:14;4.90;99.90
15717;DHT22;7960;50.908;4.204;2022-12-07T02:32:48;4.90;99.90
15717;DHT22;7960;50.908;4.204;2022-12-07T02:35:19;5.00;99.90
15717;DHT22;7960;50.908;4.204;2022-12-07T02:37:55;5.00;99.90
15717;DHT22;7960;50.908;4.204;2022-12-07T02:40:28;5.00;99.90
15717;DHT22;7960;50.908;4.204;2022-12-07T02:43:02;5.00;99.90
15717;DHT22;7960;50.908;4.204;2022-12-07T02:45:32;4.80;99.90
15717;DHT22;7960;50.908;4.204;2022-12-07T02:48:00;4.70;99.90
15717;DHT22;7960;50.908;4.204;2022-12-07T02:50:28;4.60;99.90
15717;DHT22;7960;50.908;4.204;2022-12-07T02:52:55;4.60;99.90
15717;DHT22;7960;50.908;4.204;2022-12-07T02:55:28;4.50;99.90
15717;DHT22;7960;50.908;4.204;2022-12-07T02:58:09;4.60;99.90
15717;DHT22;7960;50.908;4.204;2022-12-07T03:00:52;4.60;99.90
15717;DHT22;7960;50.908;4.204;2022-12-07T03:03:22;4.50;99.90
15717;DHT22;7960;50.908;4.204;2022-12-07T03:06:00;4.60;99.90
15717;DHT22;7960;50.908;4.204;2022-12-07T03:08:38;4.30;99.90
15717;DHT22;7960;50.908;4.204;2022-12-07T03:11:09;4.30;99.90
15717;DHT22;7960;50.908;4.204;2022-12-07T03:13:40;4.20;99.90
15717;DHT22;7960;50.908;4.204;2022-12-07T03:16:14;4.10;99.90
15717;DHT22;7960;50.908;4.204;2022-12-07T03:18:46;4.00;99.90
15717;DHT22;7960;50.908;4.204;2022-12-07T03:21:16;3.80;99.90
15717;DHT22;7960;50.908;4.204;2022-12-07T03:23:47;3.90;99.90
15717;DHT22;7960;50.908;4.204;2022-12-07T03:26:17;4.00;99.90
15717;DHT22;7960;50.908;4.204;2022-12-07T03:28:48;4.10;99.90
15717;DHT22;7960;50.908;4.204;2022-12-07T03:31:21;4.20;99.90
15717;DHT22;7960;50.908;4.204;2022-12-07T03:33:54;4.20;99.90
15717;DHT22;7960;50.908;4.204;2022-12-07T03:36:27;4.20;99.90
15717;DHT22;7960;50.908;4.204;2022-12-07T03:39:02;4.10;99.90
15717;DHT22;7960;50.908;4.204;2022-12-07T03:41:32;4.20;99.90
15717;DHT22;7960;50.908;4.204;2022-12-07T03:44:01;4.10;99.90
15717;DHT22;7960;50.908;4.204;2022-12-07T03:46:36;4.00;99.90
15717;DHT22;7960;50.908;4.204;2022-12-07T03:49:08;4.10;99.90
15717;DHT22;7960;50.908;4.204;2022-12-07T03:51:42;4.10;99.90
15717;DHT22;7960;50.908;4.204;2022-12-07T03:54:14;4.00;99.90
15717;DHT22;7960;50.908;4.204;2022-12-07T03:56:43;3.90;99.90
15717;DHT22;7960;50.908;4.204;2022-12-07T03:59:11;3.90;99.90
15717;DHT22;7960;50.908;4.204;2022-12-07T04:01:43;4.10;99.90
15717;DHT22;7960;50.908;4.204;2022-12-07T04:04:10;4.20;99.90
15717;DHT22;7960;50.908;4.204;2022-12-07T04:06:37;4.20;99.90
15717;DHT22;7960;50.908;4.204;2022-12-07T04:09:04;4.10;99.90
15717;DHT22;7960;50.908;4.204;2022-12-07T04:11:31;3.90;99.90
15717;DHT22;7960;50.908;4.204;2022-12-07T04:13:57;3.90;99.90
15717;DHT22;7960;50.908;4.204;2022-12-07T04:16:43;4.00;99.90
15717;DHT22;7960;50.908;4.204;2022-12-07T04:19:10;3.90;99.90
15717;DHT22;7960;50.908;4.204;2022-12-07T04:21:37;3.90;99.90
15717;DHT22;7960;50.908;4.204;2022-12-07T04:24:04;4.00;99.90
15717;DHT22;7960;50.908;4.204;2022-12-07T04:26:32;3.90;99.90
15717;DHT22;7960;50.908;4.204;2022-12-07T04:28:59;3.90;99.90
15717;DHT22;7960;50.908;4.204;2022-12-07T04:31:26;3.90;99.90
15717;DHT22;7960;50.908;4.204;2022-12-07T04:33:54;4.00;99.90
15717;DHT22;7960;50.908;4.204;2022-12-07T04:36:21;4.00;99.90
15717;DHT22;7960;50.908;4.204;2022-12-07T04:38:48;4.10;99.90
15717;DHT22;7960;50.908;4.204;2022-12-07T04:41:15;4.10;99.90
15717;DHT22;7960;50.908;4.204;2022-12-07T04:43:42;4.00;99.90
15717;DHT22;7960;50.908;4.204;2022-12-07T04:46:08;4.00;99.90
15717;DHT22;7960;50.908;4.204;2022-12-07T04:48:35;4.00;99.90
15717;DHT22;7960;50.908;4.204;2022-12-07T04:51:04;4.10;99.90
15717;DHT22;7960;50.908;4.204;2022-12-07T04:53:31;4.00;99.90
15717;DHT22;7960;50.908;4.204;2022-12-07T04:55:58;3.90;99.90
15717;DHT22;7960;50.908;4.204;2022-12-07T04:58:26;3.90;99.90
15717;DHT22;7960;50.908;4.204;2022-12-07T05:00:54;4.00;99.90
15717;DHT22;7960;50.908;4.204;2022-12-07T05:03:21;3.90;99.90
15717;DHT22;7960;50.908;4.204;2022-12-07T05:05:48;3.70;99.90
15717;DHT22;7960;50.908;4.204;2022-12-07T05:08:17;3.80;99.90
15717;DHT22;7960;50.908;4.204;2022-12-07T05:10:43;3.90;99.90
15717;DHT22;7960;50.908;4.204;2022-12-07T05:13:10;3.90;99.90
15717;DHT22;7960;50.908;4.204;2022-12-07T05:15:37;3.70;99.90
15717;DHT22;7960;50.908;4.204;2022-12-07T05:18:05;3.80;99.90
15717;DHT22;7960;50.908;4.204;2022-12-07T05:20:31;3.70;99.90
15717;DHT22;7960;50.908;4.204;2022-12-07T05:22:58;3.60;99.90
15717;DHT22;7960;50.908;4.204;2022-12-07T05:25:26;3.60;99.90
15717;DHT22;7960;50.908;4.204;2022-12-07T05:27:54;3.70;99.90
15717;DHT22;7960;50.908;4.204;2022-12-07T05:30:22;3.70;99.90
15717;DHT22;7960;50.908;4.204;2022-12-07T05:32:49;3.60;99.90
15717;DHT22;7960;50.908;4.204;2022-12-07T05:35:17;3.60;99.90
15717;DHT22;7960;50.908;4.204;2022-12-07T05:37:44;3.50;99.90
15717;DHT22;7960;50.908;4.204;2022-12-07T05:40:12;3.40;99.90
15717;DHT22;7960;50.908;4.204;2022-12-07T05:42:41;3.50;99.90
15717;DHT22;7960;50.908;4.204;2022-12-07T05:45:07;3.50;99.90
15717;DHT22;7960;50.908;4.204;2022-12-07T05:47:35;3.60;99.90
15717;DHT22;7960;50.908;4.204;2022-12-07T05:50:02;3.60;99.90
15717;DHT22;7960;50.908;4.204;2022-12-07T05:52:29;3.60;99.90
15717;DHT22;7960;50.908;4.204;2022-12-07T05:54:56;3.80;99.90
15717;DHT22;7960;50.908;4.204;2022-12-07T05:57:23;3.90;99.90
15717;DHT22;7960;50.908;4.204;2022-12-07T05:59:51;3.80;99.90
15717;DHT22;7960;50.908;4.204;2022-12-07T06:02:17;3.80;99.90
15717;DHT22;7960;50.908;4.204;2022-12-07T06:04:46;3.80;99.90
15717;DHT22;7960;50.908;4.204;2022-12-07T06:07:14;3.80;99.90
15717;DHT22;7960;50.908;4.204;2022-12-07T06:09:41;3.90;99.90
15717;DHT22;7960;50.908;4.204;2022-12-07T06:12:09;3.90;99.90
15717;DHT22;7960;50.908;4.204;2022-12-07T06:14:56;3.90;99.90
15717;DHT22;7960;50.908;4.204;2022-12-07T06:17:23;4.00;99.90
15717;DHT22;7960;50.908;4.204;2022-12-07T06:19:50;4.10;99.90
15717;DHT22;7960;50.908;4.204;2022-12-07T06:22:17;4.20;99.90
15717;DHT22;7960;50.908;4.204;2022-12-07T06:24:44;4.10;99.90
15717;DHT22;7960;50.908;4.204;2022-12-07T06:27:11;4.00;99.90
15717;DHT22;7960;50.908;4.204;2022-12-07T06:29:38;3.90;99.90
15717;DHT22;7960;50.908;4.204;2022-12-07T06:32:06;3.80;99.90
15717;DHT22;7960;50.908;4.204;2022-12-07T06:34:33;3.80;99.90
15717;DHT22;7960;50.908;4.204;2022-12-07T06:37:00;3.90;99.90
15717;DHT22;7960;50.908;4.204;2022-12-07T06:39:28;3.90;99.90
15717;DHT22;7960;50.908;4.204;2022-12-07T06:41:55;3.90;99.90
15717;DHT22;7960;50.908;4.204;2022-12-07T06:44:23;3.90;99.90
15717;DHT22;7960;50.908;4.204;2022-12-07T06:46:50;3.80;99.90
15717;DHT22;7960;50.908;4.204;2022-12-07T06:49:19;3.80;99.90
15717;DHT22;7960;50.908;4.204;2022-12-07T06:51:46;3.90;99.90
15717;DHT22;7960;50.908;4.204;2022-12-07T06:54:14;3.90;99.90
15717;DHT22;7960;50.908;4.204;2022-12-07T06:56:41;3.90;99.90
15717;DHT22;7960;50.908;4.204;2022-12-07T06:59:08;3.90;99.90
15717;DHT22;7960;50.908;4.204;2022-12-07T07:01:35;3.90;99.90
15717;DHT22;7960;50.908;4.204;2022-12-07T07:04:02;4.00;99.90
15717;DHT22;7960;50.908;4.204;2022-12-07T07:06:31;3.90;99.90
15717;DHT22;7960;50.908;4.204;2022-12-07T07:08:58;4.00;99.90
15717;DHT22;7960;50.908;4.204;2022-12-07T07:11:25;4.00;99.90
15717;DHT22;7960;50.908;4.204;2022-12-07T07:13:52;4.00;99.90
15717;DHT22;7960;50.908;4.204;2022-12-07T07:16:19;4.00;99.90
15717;DHT22;7960;50.908;4.204;2022-12-07T07:18:46;4.10;99.90
15717;DHT22;7960;50.908;4.204;2022-12-07T07:21:13;4.10;99.90
15717;DHT22;7960;50.908;4.204;2022-12-07T07:23:41;4.20;99.90
15717;DHT22;7960;50.908;4.204;2022-12-07T07:26:08;4.20;99.90
15717;DHT22;7960;50.908;4.204;2022-12-07T07:28:35;4.30;99.90
15717;DHT22;7960;50.908;4.204;2022-12-07T07:31:02;4.40;99.90
15717;DHT22;7960;50.908;4.204;2022-12-07T07:33:29;4.40;99.90
15717;DHT22;7960;50.908;4.204;2022-12-07T07:35:56;4.40;99.90
15717;DHT22;7960;50.908;4.204;2022-12-07T07:38:22;4.40;99.90
15717;DHT22;7960;50.908;4.204;2022-12-07T07:40:51;4.40;99.90
15717;DHT22;7960;50.908;4.204;2022-12-07T07:43:22;4.30;99.90
15717;DHT22;7960;50.908;4.204;2022-12-07T07:45:50;4.30;99.90
15717;DHT22;7960;50.908;4.204;2022-12-07T07:48:17;4.30;99.90
15717;DHT22;7960;50.908;4.204;2022-12-07T07:50:44;4.40;99.90
15717;DHT22;7960;50.908;4.204;2022-12-07T07:53:12;4.30;99.90
15717;DHT22;7960;50.908;4.204;2022-12-07T07:55:39;4.40;99.90
15717;DHT22;7960;50.908;4.204;2022-12-07T07:58:07;4.40;99.90
15717;DHT22;7960;50.908;4.204;2022-12-07T08:00:35;4.30;99.90
15717;DHT22;7960;50.908;4.204;2022-12-07T08:03:02;4.20;99.90
15717;DHT22;7960;50.908;4.204;2022-12-07T08:05:29;4.20;99.90
15717;DHT22;7960;50.908;4.204;2022-12-07T08:07:57;4.20;99.90
15717;DHT22;7960;50.908;4.204;2022-12-07T08:10:24;4.20;99.90
15717;DHT22;7960;50.908;4.204;2022-12-07T08:12:51;4.20;99.90
15717;DHT22;7960;50.908;4.204;2022-12-07T08:15:38;4.20;99.90
15717;DHT22;7960;50.908;4.204;2022-12-07T08:18:05;4.20;99.90
15717;DHT22;7960;50.908;4.204;2022-12-07T08:20:33;4.20;99.90
15717;DHT22;7960;50.908;4.204;2022-12-07T08:23:01;4.30;99.90
15717;DHT22;7960;50.908;4.204;2022-12-07T08:25:28;4.40;99.90
15717;DHT22;7960;50.908;4.204;2022-12-07T08:30:31;4.60;99.90
15717;DHT22;7960;50.908;4.204;2022-12-07T08:32:59;4.60;99.90
15717;DHT22;7960;50.908;4.204;2022-12-07T08:35:26;4.70;99.90
15717;DHT22;7960;50.908;4.204;2022-12-07T08:37:53;4.70;99.90
15717;DHT22;7960;50.908;4.204;2022-12-07T08:40:20;4.80;99.90
15717;DHT22;7960;50.908;4.204;2022-12-07T08:42:51;4.80;99.90
15717;DHT22;7960;50.908;4.204;2022-12-07T08:45:21;4.80;99.90
15717;DHT22;7960;50.908;4.204;2022-12-07T08:47:52;4.70;99.90
15717;DHT22;7960;50.908;4.204;2022-12-07T08:50:22;4.70;99.90
15717;DHT22;7960;50.908;4.204;2022-12-07T08:52:52;4.50;99.90
15717;DHT22;7960;50.908;4.204;2022-12-07T08:55:20;4.50;99.90
15717;DHT22;7960;50.908;4.204;2022-12-07T08:57:48;4.60;99.90
15717;DHT22;7960;50.908;4.204;2022-12-07T09:00:16;4.60;99.90
15717;DHT22;7960;50.908;4.204;2022-12-07T09:02:43;4.70;99.90
15717;DHT22;7960;50.908;4.204;2022-12-07T09:05:11;4.60;99.90
15717;DHT22;7960;50.908;4.204;2022-12-07T09:07:42;4.70;99.90
15717;DHT22;7960;50.908;4.204;2022-12-07T09:10:11;4.60;99.90
15717;DHT22;7960;50.908;4.204;2022-12-07T09:12:38;4.60;99.90
15717;DHT22;7960;50.908;4.204;2022-12-07T09:15:06;4.50;99.90
15717;DHT22;7960;50.908;4.204;2022-12-07T09:17:34;4.60;99.90
15717;DHT22;7960;50.908;4.204;2022-12-07T09:20:02;4.70;99.90
15717;DHT22;7960;50.908;4.204;2022-12-07T09:22:29;4.70;99.90
15717;DHT22;7960;50.908;4.204;2022-12-07T09:24:59;5.00;99.90
15717;DHT22;7960;50.908;4.204;2022-12-07T09:27:30;5.10;99.90
15717;DHT22;7960;50.908;4.204;2022-12-07T09:29:59;5.20;99.90
15717;DHT22;7960;50.908;4.204;2022-12-07T09:32:26;5.10;99.90
15717;DHT22;7960;50.908;4.204;2022-12-07T09:34:53;5.20;99.90
15717;DHT22;7960;50.908;4.204;2022-12-07T09:37:20;5.20;99.90
15717;DHT22;7960;50.908;4.204;2022-12-07T09:39:46;5.50;99.90
15717;DHT22;7960;50.908;4.204;2022-12-07T09:42:26;5.90;99.90
15717;DHT22;7960;50.908;4.204;2022-12-07T09:44:54;5.90;99.90
15717;DHT22;7960;50.908;4.204;2022-12-07T09:47:21;5.90;99.90
15717;DHT22;7960;50.908;4.204;2022-12-07T09:49:48;5.70;99.90
15717;DHT22;7960;50.908;4.204;2022-12-07T09:52:19;5.70;99.90
15717;DHT22;7960;50.908;4.204;2022-12-07T09:54:50;5.70;99.90
15717;DHT22;7960;50.908;4.204;2022-12-07T09:57:21;5.60;99.90
15717;DHT22;7960;50.908;4.204;2022-12-07T09:59:52;5.50;99.90
15717;DHT22;7960;50.908;4.204;2022-12-07T10:02:27;5.60;99.90
15717;DHT22;7960;50.908;4.204;2022-12-07T10:04:58;5.60;99.90
15717;DHT22;7960;50.908;4.204;2022-12-07T10:07:25;5.60;99.90
15717;DHT22;7960;50.908;4.204;2022-12-07T10:09:52;5.60;99.90
15717;DHT22;7960;50.908;4.204;2022-12-07T10:12:20;5.60;99.90
15717;DHT22;7960;50.908;4.204;2022-12-07T10:14:56;5.70;99.90
15717;DHT22;7960;50.908;4.204;2022-12-07T10:17:30;5.60;99.90
15717;DHT22;7960;50.908;4.204;2022-12-07T10:20:21;5.60;99.90
15717;DHT22;7960;50.908;4.204;2022-12-07T10:22:57;5.70;99.90
15717;DHT22;7960;50.908;4.204;2022-12-07T10:25:27;5.80;99.90
15717;DHT22;7960;50.908;4.204;2022-12-07T10:28:00;5.80;99.90
15717;DHT22;7960;50.908;4.204;2022-12-07T10:30:29;5.80;99.90
15717;DHT22;7960;50.908;4.204;2022-12-07T10:32:56;5.80;99.90
15717;DHT22;7960;50.908;4.204;2022-12-07T10:35:25;5.90;99.90
15717;DHT22;7960;50.908;4.204;2022-12-07T10:37:54;5.80;99.90
15717;DHT22;7960;50.908;4.204;2022-12-07T10:40:27;5.80;99.90
15717;DHT22;7960;50.908;4.204;2022-12-07T10:43:04;5.90;99.90
15717;DHT22;7960;50.908;4.204;2022-12-07T10:45:32;5.90;99.90
15717;DHT22;7960;50.908;4.204;2022-12-07T10:48:05;6.00;99.90
15717;DHT22;7960;50.908;4.204;2022-12-07T10:51:02;6.10;99.90
15717;DHT22;7960;50.908;4.204;2022-12-07T10:53:52;6.20;99.90
15717;DHT22;7960;50.908;4.204;2022-12-07T10:56:54;6.10;99.90
15717;DHT22;7960;50.908;4.204;2022-12-07T11:02:25;6.10;99.90
15717;DHT22;7960;50.908;4.204;2022-12-07T11:05:02;6.10;99.90
15717;DHT22;7960;50.908;4.204;2022-12-07T11:07:39;6.10;99.90
15717;DHT22;7960;50.908;4.204;2022-12-07T11:10:13;6.10;99.90
15717;DHT22;7960;50.908;4.204;2022-12-07T11:12:54;6.10;99.90
15717;DHT22;7960;50.908;4.204;2022-12-07T11:15:29;6.00;99.90
15717;DHT22;7960;50.908;4.204;2022-12-07T11:18:03;6.10;99.90
15717;DHT22;7960;50.908;4.204;2022-12-07T11:20:41;6.40;99.90
15717;DHT22;7960;50.908;4.204;2022-12-07T11:23:21;6.60;99.90
15717;DHT22;7960;50.908;4.204;2022-12-07T11:25:54;6.60;99.90
15717;DHT22;7960;50.908;4.204;2022-12-07T11:28:34;6.70;99.90
15717;DHT22;7960;50.908;4.204;2022-12-07T11:31:12;6.90;99.90
15717;DHT22;7960;50.908;4.204;2022-12-07T11:33:50;7.10;99.90
15717;DHT22;7960;50.908;4.204;2022-12-07T11:36:31;7.20;99.90
15717;DHT22;7960;50.908;4.204;2022-12-07T11:39:02;7.30;99.90
15717;DHT22;7960;50.908;4.204;2022-12-07T11:41:34;7.30;99.90
15717;DHT22;7960;50.908;4.204;2022-12-07T11:44:06;7.70;99.90
15717;DHT22;7960;50.908;4.204;2022-12-07T11:46:45;8.00;99.90
15717;DHT22;7960;50.908;4.204;2022-12-07T11:49:21;8.10;99.90
15717;DHT22;7960;50.908;4.204;2022-12-07T11:51:52;8.00;99.90
15717;DHT22;7960;50.908;4.204;2022-12-07T11:54:25;7.70;99.90
15717;DHT22;7960;50.908;4.204;2022-12-07T11:56:56;7.50;99.90
15717;DHT22;7960;50.908;4.204;2022-12-07T11:59:31;7.30;99.90
15717;DHT22;7960;50.908;4.204;2022-12-07T12:02:03;7.30;99.90
15717;DHT22;7960;50.908;4.204;2022-12-07T12:04:50;7.10;99.90
15717;DHT22;7960;50.908;4.204;2022-12-07T12:07:22;7.10;99.90
15717;DHT22;7960;50.908;4.204;2022-12-07T12:09:53;7.10;99.90
15717;DHT22;7960;50.908;4.204;2022-12-07T12:15:47;7.40;99.90
15717;DHT22;7960;50.908;4.204;2022-12-07T12:18:34;7.50;99.90
15717;DHT22;7960;50.908;4.204;2022-12-07T12:21:06;7.50;99.90
15717;DHT22;7960;50.908;4.204;2022-12-07T12:23:39;7.60;99.90
15717;DHT22;7960;50.908;4.204;2022-12-07T12:26:14;7.40;99.90
15717;DHT22;7960;50.908;4.204;2022-12-07T12:28:50;7.20;99.90
15717;DHT22;7960;50.908;4.204;2022-12-07T12:31:32;7.20;99.90
15717;DHT22;7960;50.908;4.204;2022-12-07T12:34:03;7.20;99.90
15717;DHT22;7960;50.908;4.204;2022-12-07T12:36:46;7.30;99.90
15717;DHT22;7960;50.908;4.204;2022-12-07T12:39:14;7.30;99.90
15717;DHT22;7960;50.908;4.204;2022-12-07T12:41:56;7.40;99.90
15717;DHT22;7960;50.908;4.204;2022-12-07T12:47:51;7.30;99.90
15717;DHT22;7960;50.908;4.204;2022-12-07T12:50:23;7.30;99.90
15717;DHT22;7960;50.908;4.204;2022-12-07T12:53:02;7.30;99.90
15717;DHT22;7960;50.908;4.204;2022-12-07T12:58:39;7.20;99.90
15717;DHT22;7960;50.908;4.204;2022-12-07T13:04:18;7.10;99.90
15717;DHT22;7960;50.908;4.204;2022-12-07T13:06:48;7.20;99.90
15717;DHT22;7960;50.908;4.204;2022-12-07T13:09:22;7.20;99.90
15717;DHT22;7960;50.908;4.204;2022-12-07T13:11:54;7.20;99.90
15717;DHT22;7960;50.908;4.204;2022-12-07T13:14:56;7.30;99.90
15717;DHT22;7960;50.908;4.204;2022-12-07T13:17:56;7.30;99.90
15717;DHT22;7960;50.908;4.204;2022-12-07T13:20:48;7.30;99.90
15717;DHT22;7960;50.908;4.204;2022-12-07T13:23:22;7.40;99.90
15717;DHT22;7960;50.908;4.204;2022-12-07T13:25:55;7.30;99.90
15717;DHT22;7960;50.908;4.204;2022-12-07T13:28:32;7.30;99.90
15717;DHT22;7960;50.908;4.204;2022-12-07T13:31:23;7.30;99.90
15717;DHT22;7960;50.908;4.204;2022-12-07T13:33:55;7.30;99.90
15717;DHT22;7960;50.908;4.204;2022-12-07T13:36:23;7.20;99.90
15717;DHT22;7960;50.908;4.204;2022-12-07T13:38:57;7.30;99.90
15717;DHT22;7960;50.908;4.204;2022-12-07T13:41:27;7.30;99.90
15717;DHT22;7960;50.908;4.204;2022-12-07T13:44:01;7.20;99.90
15717;DHT22;7960;50.908;4.204;2022-12-07T13:46:40;7.10;99.90
15717;DHT22;7960;50.908;4.204;2022-12-07T13:49:17;7.20;99.90
15717;DHT22;7960;50.908;4.204;2022-12-07T13:51:44;7.20;99.90
15717;DHT22;7960;50.908;4.204;2022-12-07T13:54:13;7.00;99.90
15717;DHT22;7960;50.908;4.204;2022-12-07T13:56:42;7.00;99.90
15717;DHT22;7960;50.908;4.204;2022-12-07T13:59:20;7.00;99.90
15717;DHT22;7960;50.908;4.204;2022-12-07T14:01:50;6.90;99.90
15717;DHT22;7960;50.908;4.204;2022-12-07T14:04:30;6.90;99.90
15717;DHT22;7960;50.908;4.204;2022-12-07T14:06:58;6.90;99.90
15717;DHT22;7960;50.908;4.204;2022-12-07T14:09:27;6.90;99.90
15717;DHT22;7960;50.908;4.204;2022-12-07T14:11:57;6.90;99.90
15717;DHT22;7960;50.908;4.204;2022-12-07T14:14:27;6.80;99.90
15717;DHT22;7960;50.908;4.204;2022-12-07T14:16:57;6.70;99.90
15717;DHT22;7960;50.908;4.204;2022-12-07T14:19:46;6.50;99.90
15717;DHT22;7960;50.908;4.204;2022-12-07T14:22:23;6.30;99.90
15717;DHT22;7960;50.908;4.204;2022-12-07T14:24:50;6.20;99.90
15717;DHT22;7960;50.908;4.204;2022-12-07T14:27:21;6.10;99.90
15717;DHT22;7960;50.908;4.204;2022-12-07T14:29:51;6.10;99.90
15717;DHT22;7960;50.908;4.204;2022-12-07T14:32:21;6.10;99.90
15717;DHT22;7960;50.908;4.204;2022-12-07T14:34:57;6.20;99.90
15717;DHT22;7960;50.908;4.204;2022-12-07T14:37:25;6.10;99.90
15717;DHT22;7960;50.908;4.204;2022-12-07T14:39:52;6.10;99.90
15717;DHT22;7960;50.908;4.204;2022-12-07T14:42:20;6.10;99.90
15717;DHT22;7960;50.908;4.204;2022-12-07T14:44:48;6.10;99.90
15717;DHT22;7960;50.908;4.204;2022-12-07T14:47:15;6.20;99.90
15717;DHT22;7960;50.908;4.204;2022-12-07T14:49:42;6.20;99.90
15717;DHT22;7960;50.908;4.204;2022-12-07T14:52:16;6.10;99.90
15717;DHT22;7960;50.908;4.204;2022-12-07T14:54:44;6.10;99.90
15717;DHT22;7960;50.908;4.204;2022-12-07T14:57:11;6.10;99.90
15717;DHT22;7960;50.908;4.204;2022-12-07T14:59:39;6.10;99.90
15717;DHT22;7960;50.908;4.204;2022-12-07T15:02:10;6.00;99.90
15717;DHT22;7960;50.908;4.204;2022-12-07T15:04:38;6.00;99.90
15717;DHT22;7960;50.908;4.204;2022-12-07T15:07:10;6.00;99.90
15717;DHT22;7960;50.908;4.204;2022-12-07T15:09:39;6.00;99.90
15717;DHT22;7960;50.908;4.204;2022-12-07T15:12:06;6.00;99.90
15717;DHT22;7960;50.908;4.204;2022-12-07T15:14:33;6.10;99.90
15717;DHT22;7960;50.908;4.204;2022-12-07T15:17:14;6.10;99.90
15717;DHT22;7960;50.908;4.204;2022-12-07T15:19:41;6.10;99.90
15717;DHT22;7960;50.908;4.204;2022-12-07T15:22:08;6.00;99.90
15717;DHT22;7960;50.908;4.204;2022-12-07T15:24:36;6.10;99.90
15717;DHT22;7960;50.908;4.204;2022-12-07T15:27:03;6.00;99.90
15717;DHT22;7960;50.908;4.204;2022-12-07T15:29:31;6.00;99.90
15717;DHT22;7960;50.908;4.204;2022-12-07T15:31:58;6.00;99.90
15717;DHT22;7960;50.908;4.204;2022-12-07T15:34:29;5.90;99.90
15717;DHT22;7960;50.908;4.204;2022-12-07T15:36:57;5.90;99.90
15717;DHT22;7960;50.908;4.204;2022-12-07T15:39:29;5.80;99.90
15717;DHT22;7960;50.908;4.204;2022-12-07T15:42:04;5.90;99.90
15717;DHT22;7960;50.908;4.204;2022-12-07T15:44:31;5.80;99.90
15717;DHT22;7960;50.908;4.204;2022-12-07T15:47:15;5.80;99.90
15717;DHT22;7960;50.908;4.204;2022-12-07T15:49:45;6.00;99.90
15717;DHT22;7960;50.908;4.204;2022-12-07T15:52:11;6.00;99.90
15717;DHT22;7960;50.908;4.204;2022-12-07T15:54:39;5.80;99.90
15717;DHT22;7960;50.908;4.204;2022-12-07T15:57:06;5.80;99.90
15717;DHT22;7960;50.908;4.204;2022-12-07T15:59:33;5.80;99.90
15717;DHT22;7960;50.908;4.204;2022-12-07T16:02:01;5.70;99.90
15717;DHT22;7960;50.908;4.204;2022-12-07T16:04:28;5.70;99.90
15717;DHT22;7960;50.908;4.204;2022-12-07T16:06:57;5.80;99.90
15717;DHT22;7960;50.908;4.204;2022-12-07T16:09:24;5.80;99.90
15717;DHT22;7960;50.908;4.204;2022-12-07T16:11:51;5.80;99.90
15717;DHT22;7960;50.908;4.204;2022-12-07T16:14:25;5.80;99.90
15717;DHT22;7960;50.908;4.204;2022-12-07T16:16:52;5.80;99.90
15717;DHT22;7960;50.908;4.204;2022-12-07T16:19:19;5.90;99.90
15717;DHT22;7960;50.908;4.204;2022-12-07T16:21:46;5.90;99.90
15717;DHT22;7960;50.908;4.204;2022-12-07T16:24:14;5.90;99.90
15717;DHT22;7960;50.908;4.204;2022-12-07T16:26:42;5.80;99.90
15717;DHT22;7960;50.908;4.204;2022-12-07T16:29:11;5.90;99.90
15717;DHT22;7960;50.908;4.204;2022-12-07T16:31:38;5.90;99.90
15717;DHT22;7960;50.908;4.204;2022-12-07T16:34:05;5.80;99.90
15717;DHT22;7960;50.908;4.204;2022-12-07T16:36:32;5.70;99.90
15717;DHT22;7960;50.908;4.204;2022-12-07T16:39:00;5.70;99.90
15717;DHT22;7960;50.908;4.204;2022-12-07T16:41:28;5.60;99.90